createdAt,value
2019-02-02T00:01:17.319Z,21.63
2019-02-02T00:03:46.898Z,23.60
2019-02-02T00:06:16.032Z,23.20
2019-02-02T00:08:44.984Z,23.90
2019-02-02T00:11:14.362Z,23.63
2019-02-02T00:13:43.868Z,24.57
2019-02-02T00:16:13.542Z,23.73
2019-02-02T00:18:43.187Z,24.60
2019-02-02T00:21:12.371Z,24.70
2019-02-02T00:23:41.239Z,25.47
2019-02-02T00:26:10.872Z,24.00
2019-02-02T00:28:40.289Z,22.30
2019-02-02T00:31:09.983Z,24.63
2019-02-02T00:33:39.935Z,21.30
2019-02-02T00:36:09.718Z,21.77
2019-02-02T00:38:39.385Z,21.13
2019-02-02T00:41:08.741Z,20.27
2019-02-02T00:43:38.672Z,19.17
2019-02-02T00:46:07.751Z,20.73
2019-02-02T00:48:36.683Z,22.27
2019-02-02T00:51:06.336Z,20.70
2019-02-02T00:53:35.320Z,21.00
2019-02-02T00:56:04.828Z,19.73
2019-02-02T00:58:33.961Z,18.77
2019-02-02T01:01:02.951Z,20.50
2019-02-02T01:03:31.795Z,19.60
2019-02-02T01:06:05.684Z,18.43
2019-02-02T01:08:34.823Z,18.23
2019-02-02T01:11:04.852Z,18.30
2019-02-02T01:13:33.732Z,17.10
2019-02-02T01:16:03.763Z,17.13
2019-02-02T01:18:32.651Z,20.00
2019-02-02T01:21:04.727Z,18.77
2019-02-02T01:23:33.753Z,18.70
2019-02-02T01:26:03.655Z,19.00
2019-02-02T01:28:32.696Z,19.63
2019-02-02T01:31:01.684Z,19.00
2019-02-02T01:33:31.096Z,20.43
2019-02-02T01:36:00.603Z,18.77
2019-02-02T01:38:29.551Z,19.07
2019-02-02T01:40:58.791Z,18.97
2019-02-02T01:43:28.007Z,21.57
2019-02-02T01:45:57.291Z,18.57
2019-02-02T01:48:26.175Z,18.03
2019-02-02T01:50:55.889Z,19.30
2019-02-02T01:53:24.683Z,18.37
2019-02-02T01:55:53.499Z,19.40
2019-02-02T01:58:22.389Z,19.53
2019-02-02T02:00:51.955Z,19.43
2019-02-02T02:03:20.936Z,16.70
2019-02-02T02:05:50.462Z,17.13
2019-02-02T02:08:19.545Z,16.50
2019-02-02T02:10:49.468Z,18.90
2019-02-02T02:13:19.328Z,21.90
2019-02-02T02:15:48.603Z,20.60
2019-02-02T02:18:17.508Z,19.43
2019-02-02T02:20:47.011Z,19.30
2019-02-02T02:23:15.984Z,19.20
2019-02-02T02:25:45.264Z,19.40
2019-02-02T02:28:14.424Z,21.00
2019-02-02T02:30:47.126Z,19.30
2019-02-02T02:33:14.383Z,20.60
2019-02-02T02:35:43.494Z,19.60
2019-02-02T02:38:12.822Z,20.20
2019-02-02T02:40:42.109Z,21.77
2019-02-02T02:43:11.289Z,19.80
2019-02-02T02:45:40.518Z,20.83
2019-02-02T02:48:10.283Z,17.57
2019-02-02T02:50:40.008Z,17.87
2019-02-02T02:53:08.958Z,19.30
2019-02-02T02:55:37.896Z,21.07
2019-02-02T02:58:07.398Z,23.10
2019-02-02T03:00:36.400Z,20.50
2019-02-02T03:03:06.100Z,19.40
2019-02-02T03:05:35.407Z,19.80
2019-02-02T03:08:04.461Z,19.60
2019-02-02T03:10:33.556Z,23.00
2019-02-02T03:13:05.579Z,21.00
2019-02-02T03:15:35.311Z,23.17
2019-02-02T03:18:05.019Z,22.30
2019-02-02T03:20:34.079Z,22.13
2019-02-02T03:23:04.681Z,23.07
2019-02-02T03:25:34.235Z,23.10
2019-02-02T03:28:03.642Z,22.30
2019-02-02T03:30:32.933Z,24.20
2019-02-02T03:33:02.660Z,22.30
2019-02-02T03:35:31.679Z,25.20
2019-02-02T03:38:00.905Z,24.87
2019-02-02T03:40:30.209Z,24.93
2019-02-02T03:42:59.326Z,21.97
2019-02-02T03:45:28.547Z,23.37
2019-02-02T03:47:57.496Z,20.50
2019-02-02T03:50:26.699Z,21.73
2019-02-02T03:52:56.313Z,20.90
2019-02-02T03:55:25.506Z,22.27
2019-02-02T03:57:55.104Z,21.80
2019-02-02T04:00:24.707Z,19.70
2019-02-02T04:02:53.680Z,21.40
2019-02-02T04:05:25.695Z,20.27
2019-02-02T04:07:54.866Z,20.30
2019-02-02T04:10:24.377Z,21.37
2019-02-02T04:12:53.303Z,21.10
2019-02-02T04:15:22.829Z,22.63
2019-02-02T04:17:51.785Z,22.77
2019-02-02T04:20:22.052Z,20.70
2019-02-02T04:22:51.829Z,22.73
2019-02-02T04:25:22.005Z,23.73
2019-02-02T04:27:52.079Z,22.40
2019-02-02T04:30:23.195Z,21.70
2019-02-02T04:32:52.527Z,23.33
2019-02-02T04:35:21.775Z,24.07
2019-02-02T04:37:50.828Z,22.97
2019-02-02T04:40:20.482Z,21.10
2019-02-02T04:42:50.348Z,21.73
2019-02-02T04:45:20.002Z,22.80
2019-02-02T04:47:49.197Z,24.17
2019-02-02T04:50:18.624Z,23.10
2019-02-02T04:52:47.969Z,20.17
2019-02-02T04:55:18.323Z,23.00
2019-02-02T04:57:48.142Z,23.33
2019-02-02T05:00:20.836Z,23.50
2019-02-02T05:02:50.429Z,23.30
2019-02-02T05:05:19.519Z,21.93
2019-02-02T05:07:49.363Z,21.60
2019-02-02T05:10:19.892Z,20.10
2019-02-02T05:12:49.763Z,21.10
2019-02-02T05:15:19.071Z,21.63
2019-02-02T05:17:47.982Z,24.40
2019-02-02T05:20:17.190Z,23.10
2019-02-02T05:22:46.767Z,23.37
2019-02-02T05:25:16.530Z,21.83
2019-02-02T05:27:45.463Z,23.77
2019-02-02T05:30:20.236Z,21.97
2019-02-02T05:32:49.808Z,22.27
2019-02-02T05:35:19.555Z,21.97
2019-02-02T05:37:48.821Z,22.50
2019-02-02T05:40:18.924Z,21.53
2019-02-02T05:42:48.135Z,21.97
2019-02-02T05:45:19.020Z,22.17
2019-02-02T05:47:48.377Z,21.97
2019-02-02T05:50:19.471Z,21.43
2019-02-02T05:52:48.603Z,21.70
2019-02-02T05:55:18.423Z,22.37
2019-02-02T05:57:47.622Z,21.43
2019-02-02T06:01:05.800Z,21.83
2019-02-02T06:03:34.965Z,20.57
2019-02-02T06:06:04.852Z,21.93
2019-02-02T06:08:34.507Z,20.40
2019-02-02T06:11:03.548Z,22.80
2019-02-02T06:13:32.839Z,21.90
2019-02-02T06:16:01.727Z,23.20
2019-02-02T06:18:30.604Z,23.23
2019-02-02T06:20:59.795Z,24.53
2019-02-02T06:23:29.263Z,23.27
2019-02-02T06:25:58.401Z,23.20
2019-02-02T06:28:27.919Z,23.57
2019-02-02T06:31:00.049Z,24.23
2019-02-02T06:33:28.211Z,24.57
2019-02-02T06:35:58.023Z,24.67
2019-02-02T06:38:26.997Z,25.30
2019-02-02T06:40:56.655Z,25.40
2019-02-02T06:43:25.476Z,25.37
2019-02-02T06:45:54.299Z,25.07
2019-02-02T06:48:24.096Z,25.57
2019-02-02T06:50:53.249Z,24.53
2019-02-02T06:53:22.920Z,25.50
2019-02-02T06:55:52.195Z,24.27
2019-02-02T06:58:21.816Z,24.03
2019-02-02T07:00:51.123Z,22.93
2019-02-02T07:03:20.091Z,21.80
2019-02-02T07:05:49.272Z,21.73
2019-02-02T07:08:18.845Z,23.80
2019-02-02T07:10:48.255Z,20.40
2019-02-02T07:13:17.548Z,27.00
2019-02-02T07:15:46.760Z,24.27
2019-02-02T07:18:15.844Z,26.00
2019-02-02T07:20:45.207Z,23.87
2019-02-02T07:23:14.304Z,26.30
2019-02-02T07:25:43.098Z,23.03
2019-02-02T07:28:11.975Z,25.27
2019-02-02T07:30:40.843Z,23.97
2019-02-02T07:33:09.711Z,26.60
2019-02-02T07:35:38.857Z,24.97
2019-02-02T07:38:08.446Z,27.37
2019-02-02T07:40:38.251Z,27.30
2019-02-02T07:43:07.480Z,24.40
2019-02-02T07:45:36.653Z,28.47
2019-02-02T07:48:06.036Z,26.90
2019-02-02T07:50:35.276Z,26.50
2019-02-02T07:53:07.389Z,26.63
2019-02-02T07:55:37.270Z,26.90
2019-02-02T07:58:08.428Z,24.57
2019-02-02T09:13:52.984Z,28.20
2019-02-02T09:16:22.547Z,25.30
2019-02-02T09:18:52.073Z,27.57
2019-02-02T09:21:21.379Z,29.70
2019-02-02T09:23:50.215Z,27.67
2019-02-02T09:26:19.440Z,29.20
2019-02-02T09:28:48.547Z,26.80
2019-02-02T09:31:17.580Z,26.40
2019-02-02T09:33:46.689Z,26.57
2019-02-02T09:36:16.919Z,26.63
2019-02-02T09:38:46.804Z,26.00
2019-02-02T09:41:15.672Z,28.40
2019-02-02T09:43:44.492Z,25.57
2019-02-02T09:46:13.662Z,29.73
2019-02-02T09:48:43.207Z,27.33
2019-02-02T09:51:13.056Z,27.20
2019-02-02T09:53:41.827Z,25.07
2019-02-02T09:56:10.660Z,27.10
2019-02-02T09:58:39.776Z,26.97
2019-02-02T10:01:08.639Z,25.30
2019-02-02T10:03:37.920Z,25.43
2019-02-02T10:06:07.535Z,26.37
2019-02-02T10:08:36.720Z,26.10
2019-02-02T10:11:06.031Z,26.30
2019-02-02T10:13:35.590Z,27.40
2019-02-02T10:16:05.536Z,26.20
2019-02-02T10:18:34.447Z,26.73
2019-02-02T10:21:04.436Z,26.33
2019-02-02T10:23:34.172Z,27.83
2019-02-02T10:26:05.144Z,25.87
2019-02-02T10:28:34.299Z,29.63
2019-02-02T10:31:03.535Z,28.57
2019-02-02T10:33:32.691Z,26.37
2019-02-02T10:36:01.792Z,23.97
2019-02-02T10:38:30.683Z,26.40
2019-02-02T10:40:59.495Z,26.97
2019-02-02T10:43:28.475Z,33.70
2019-02-02T10:45:57.355Z,30.40
2019-02-02T10:48:26.221Z,43.33
2019-02-02T10:50:55.175Z,24.57
2019-02-02T10:53:24.203Z,23.60
2019-02-02T10:55:53.543Z,28.00
2019-02-02T10:58:22.727Z,35.03
2019-02-02T11:00:52.288Z,22.10
2019-02-02T11:03:22.104Z,18.90
2019-02-02T11:05:51.257Z,18.67
2019-02-02T11:08:20.657Z,14.90
2019-02-02T11:10:50.054Z,16.17
2019-02-02T11:13:19.738Z,23.83
2019-02-02T11:15:49.483Z,17.17
2019-02-02T11:18:18.924Z,16.60
2019-02-02T11:20:48.864Z,16.47
2019-02-02T11:23:18.504Z,18.73
2019-02-02T11:25:48.219Z,17.57
2019-02-02T11:28:17.038Z,18.87
2019-02-02T11:30:46.014Z,18.43
2019-02-02T11:33:15.352Z,18.43
2019-02-02T11:35:44.547Z,18.97
2019-02-02T11:38:14.188Z,16.67
2019-02-02T11:40:43.491Z,17.90
2019-02-02T11:43:13.231Z,20.97
2019-02-02T11:45:42.915Z,17.60
2019-02-02T11:48:14.902Z,18.47
2019-02-02T11:50:43.148Z,16.80
2019-02-02T11:53:12.016Z,17.37
2019-02-02T11:55:41.166Z,17.50
2019-02-02T11:58:09.992Z,16.23
2019-02-02T12:00:41.143Z,20.03
2019-02-02T12:03:10.778Z,22.47
2019-02-02T12:05:40.077Z,19.83
2019-02-02T12:08:09.651Z,17.37
2019-02-02T12:10:38.896Z,17.13
2019-02-02T12:13:08.359Z,17.93
2019-02-02T12:15:37.603Z,15.97
2019-02-02T12:18:07.637Z,16.73
2019-02-02T12:20:36.660Z,16.53
2019-02-02T12:23:05.782Z,16.20
2019-02-02T12:25:35.403Z,17.53
2019-02-02T12:28:05.440Z,16.53
2019-02-02T12:30:35.811Z,17.17
2019-02-02T12:33:05.836Z,14.60
2019-02-02T12:35:35.107Z,15.60
2019-02-02T12:38:04.268Z,13.03
2019-02-02T12:40:34.161Z,14.87
2019-02-02T12:43:04.944Z,14.73
2019-02-02T12:45:48.851Z,13.63
2019-02-02T12:48:18.148Z,12.97
2019-02-02T12:50:47.656Z,14.27
2019-02-02T12:53:17.463Z,15.07
2019-02-02T12:55:46.461Z,11.90
2019-02-02T12:58:15.655Z,11.73
2019-02-02T13:00:44.546Z,13.20
2019-02-02T13:03:13.602Z,13.27
2019-02-02T13:05:43.079Z,14.70
2019-02-02T13:08:12.240Z,14.37
2019-02-02T13:10:41.744Z,15.70
2019-02-02T13:13:11.283Z,16.17
2019-02-02T13:15:40.570Z,13.03
2019-02-02T13:18:09.572Z,13.27
2019-02-02T13:20:39.057Z,13.97
2019-02-02T13:23:08.223Z,13.33
2019-02-02T13:25:37.212Z,11.87
2019-02-02T13:28:06.395Z,11.53
2019-02-02T13:30:36.745Z,12.40
2019-02-02T13:33:07.447Z,12.47
2019-02-02T13:35:40.144Z,11.40
2019-02-02T13:38:09.107Z,12.63
2019-02-02T13:40:38.755Z,13.20
2019-02-02T13:43:07.948Z,13.00
2019-02-02T13:45:37.580Z,13.60
2019-02-02T13:48:07.308Z,13.30
2019-02-02T13:50:36.725Z,15.60
2019-02-02T13:53:08.443Z,14.13
2019-02-02T13:55:39.818Z,13.10
2019-02-02T13:58:08.721Z,13.43
2019-02-02T14:00:38.342Z,14.03
2019-02-02T14:03:08.024Z,14.37
2019-02-02T14:05:37.554Z,13.77
2019-02-02T14:08:06.629Z,14.33
2019-02-02T14:10:35.857Z,14.47
2019-02-02T14:13:05.148Z,13.20
2019-02-02T14:15:34.608Z,13.20
2019-02-02T14:18:04.973Z,13.17
2019-02-02T14:20:34.357Z,13.20
2019-02-02T14:23:03.427Z,9.73
2019-02-02T14:25:32.500Z,7.43
2019-02-02T14:28:01.720Z,5.50
2019-02-02T14:30:31.267Z,6.47
2019-02-02T14:33:00.841Z,6.30
2019-02-02T14:35:30.057Z,7.23
2019-02-02T14:37:59.153Z,6.43
2019-02-02T14:40:28.221Z,6.10
2019-02-02T14:42:57.476Z,5.33
2019-02-02T14:45:27.598Z,6.63
2019-02-02T14:47:57.298Z,7.80
2019-02-02T14:50:26.765Z,8.40
2019-02-02T14:52:55.758Z,6.30
2019-02-02T14:55:27.143Z,7.13
2019-02-02T14:57:56.427Z,7.63
2019-02-02T15:00:27.523Z,7.43
2019-02-02T15:02:57.265Z,7.20
2019-02-02T15:05:26.783Z,7.47
2019-02-02T15:07:56.551Z,7.93
2019-02-02T15:10:26.140Z,6.83
2019-02-02T15:12:55.373Z,8.00
2019-02-02T15:15:24.393Z,7.93
2019-02-02T15:17:53.901Z,7.97
2019-02-02T15:20:36.813Z,8.23
2019-02-02T15:23:07.115Z,8.67
2019-02-02T15:25:36.731Z,7.53
2019-02-02T15:28:06.070Z,6.00
2019-02-02T15:30:35.778Z,9.10
2019-02-02T15:33:05.756Z,9.10
2019-02-02T15:35:34.655Z,8.73
2019-02-02T15:38:03.935Z,9.20
2019-02-02T15:40:33.027Z,8.93
2019-02-02T15:43:02.160Z,9.30
2019-02-02T15:45:31.620Z,9.17
2019-02-02T15:48:04.760Z,9.07
2019-02-02T15:50:34.544Z,9.20
2019-02-02T15:53:04.419Z,9.67
2019-02-02T15:55:33.316Z,8.40
2019-02-02T15:58:02.675Z,10.73
2019-02-02T16:00:34.469Z,10.37
2019-02-02T16:03:05.752Z,10.63
2019-02-02T16:05:36.397Z,9.57
2019-02-02T16:08:11.099Z,9.23
2019-02-02T16:10:40.116Z,8.70
2019-02-02T16:13:09.303Z,8.50
2019-02-02T16:15:38.566Z,8.80
2019-02-02T16:18:07.823Z,11.70
2019-02-02T16:20:41.905Z,10.60
2019-02-02T16:23:09.814Z,11.20
2019-02-02T16:25:39.018Z,12.43
2019-02-02T16:28:08.376Z,14.43
2019-02-02T16:30:37.673Z,12.67
2019-02-02T16:33:07.280Z,10.80
2019-02-02T16:35:36.527Z,12.90
2019-02-02T16:38:06.223Z,13.83
2019-02-02T16:40:35.200Z,11.87
2019-02-02T16:43:04.609Z,12.77
2019-02-02T16:45:33.887Z,12.40
2019-02-02T16:48:04.647Z,14.43
2019-02-02T16:50:33.891Z,14.87
2019-02-02T16:53:02.828Z,14.37
2019-02-02T16:55:32.414Z,15.07
2019-02-02T16:58:03.735Z,17.27
2019-02-02T17:00:33.377Z,13.47
2019-02-02T17:03:02.585Z,12.47
2019-02-02T17:05:32.175Z,12.90
2019-02-02T17:08:01.841Z,12.30
2019-02-02T17:10:35.446Z,13.87
2019-02-02T17:13:05.183Z,13.37
2019-02-02T17:15:34.846Z,12.73
2019-02-02T17:18:04.027Z,12.53
2019-02-02T17:20:42.311Z,13.53
2019-02-02T17:23:11.682Z,14.43
2019-02-02T17:25:41.149Z,13.53
2019-02-02T17:28:10.725Z,14.40
2019-02-02T17:30:40.124Z,17.40
2019-02-02T17:33:11.536Z,15.33
2019-02-02T17:35:41.047Z,15.67
2019-02-02T17:38:10.691Z,15.43
2019-02-02T17:40:40.568Z,15.47
2019-02-02T17:43:09.581Z,15.80
2019-02-02T17:45:38.459Z,16.10
2019-02-02T17:48:08.354Z,15.40
2019-02-02T17:50:37.765Z,19.40
2019-02-02T17:53:07.203Z,17.80
2019-02-02T17:55:36.435Z,16.57
2019-02-02T17:58:05.935Z,15.70
2019-02-02T18:00:42.185Z,13.17
2019-02-02T18:03:11.135Z,13.43
2019-02-02T18:05:40.669Z,42.30
2019-02-02T18:08:10.106Z,17.20
2019-02-02T18:10:39.423Z,16.70
2019-02-02T18:13:08.332Z,15.20
2019-02-02T18:15:37.320Z,15.30
2019-02-02T18:18:07.309Z,15.27
2019-02-02T18:20:36.622Z,16.87
2019-02-02T18:23:06.035Z,13.80
2019-02-02T18:25:35.255Z,15.80
2019-02-02T18:28:07.833Z,18.07
2019-02-02T18:30:37.423Z,18.07
2019-02-02T18:33:06.756Z,16.23
2019-02-02T18:35:35.824Z,16.73
2019-02-02T18:38:05.152Z,17.63
2019-02-02T18:40:34.467Z,17.00
2019-02-02T18:43:04.603Z,16.60
2019-02-02T18:45:33.471Z,17.87
2019-02-02T18:48:03.300Z,18.10
2019-02-02T18:50:32.299Z,17.43
2019-02-02T18:53:01.992Z,18.13
2019-02-02T18:55:46.986Z,18.93
2019-02-02T18:58:16.197Z,18.93
2019-02-02T19:00:46.119Z,19.70
2019-02-02T19:03:15.391Z,20.60
2019-02-02T19:05:45.099Z,20.90
2019-02-02T19:08:14.035Z,22.10
2019-02-02T19:10:43.296Z,23.33
2019-02-02T19:13:12.316Z,23.07
2019-02-02T19:15:41.687Z,21.33
2019-02-02T19:18:11.157Z,21.20
2019-02-02T19:20:40.856Z,19.83
2019-02-02T19:23:10.492Z,21.70
2019-02-02T19:25:39.776Z,20.27
2019-02-02T19:28:08.983Z,21.73
2019-02-02T19:30:38.583Z,21.57
2019-02-02T19:33:08.187Z,23.67
2019-02-02T19:35:37.427Z,23.00
2019-02-02T19:38:06.493Z,23.87
2019-02-02T19:40:35.827Z,24.63
2019-02-02T19:43:05.319Z,24.10
2019-02-02T19:45:34.488Z,22.37
2019-02-02T19:48:06.344Z,23.50
2019-02-02T19:50:36.516Z,23.83
2019-02-02T19:53:05.802Z,25.73
2019-02-02T19:55:34.752Z,21.33
2019-02-02T19:58:03.587Z,25.53
2019-02-02T20:00:33.007Z,23.20
2019-02-02T20:03:05.174Z,23.33
2019-02-02T20:05:34.819Z,27.67
2019-02-02T20:08:05.240Z,22.50
2019-02-02T20:10:34.855Z,22.87
2019-02-02T20:13:03.835Z,28.30
2019-02-02T20:15:33.372Z,24.20
2019-02-02T20:18:10.074Z,24.37
2019-02-02T20:20:35.847Z,25.30
2019-02-02T20:23:05.145Z,25.80
2019-02-02T20:25:34.751Z,42.83
2019-02-02T20:28:03.927Z,37.17
2019-02-02T20:30:32.928Z,22.20
2019-02-02T20:33:02.454Z,25.53
2019-02-02T20:35:40.839Z,21.40
2019-02-02T20:38:02.415Z,26.97
2019-02-02T20:40:31.992Z,22.23
2019-02-02T20:43:00.767Z,26.60
2019-02-02T20:45:31.992Z,24.37
2019-02-02T20:48:05.788Z,23.07
2019-02-02T20:50:35.456Z,30.00
2019-02-02T20:53:04.591Z,23.30
2019-02-02T20:55:36.571Z,21.87
2019-02-02T20:58:07.534Z,19.83
2019-02-02T21:00:36.947Z,21.70
2019-02-02T21:03:06.543Z,23.83
2019-02-02T21:05:36.152Z,20.47
2019-02-02T21:08:05.679Z,21.50
2019-02-02T21:10:34.665Z,23.17
2019-02-02T21:13:05.255Z,17.17
2019-02-02T21:15:35.636Z,19.63
2019-02-02T21:18:04.659Z,21.07
2019-02-02T21:20:34.135Z,19.87
2019-02-02T21:23:03.123Z,19.53
2019-02-02T21:25:34.064Z,20.07
2019-02-02T21:28:04.003Z,23.17
2019-02-02T21:30:34.623Z,19.00
2019-02-02T21:33:04.255Z,19.37
2019-02-02T21:35:34.333Z,18.43
2019-02-02T21:38:03.405Z,18.27
2019-02-02T21:40:34.103Z,18.53
2019-02-02T21:43:04.971Z,18.70
2019-02-02T21:45:34.361Z,17.37
2019-02-02T21:48:04.017Z,18.07
2019-02-02T21:50:33.628Z,18.53
2019-02-02T21:53:03.217Z,17.33
2019-02-02T21:55:32.880Z,18.63
2019-02-02T21:58:02.194Z,16.57
2019-02-02T22:00:38.128Z,16.13
2019-02-02T22:03:09.462Z,16.23
2019-02-02T22:05:38.995Z,16.23
2019-02-02T22:08:09.129Z,15.33
2019-02-02T22:10:39.665Z,16.13
2019-02-02T22:13:08.885Z,15.23
2019-02-02T22:15:38.011Z,13.70
2019-02-02T22:18:08.845Z,15.30
2019-02-02T22:20:37.790Z,13.90
2019-02-02T22:23:07.828Z,14.30
2019-02-02T22:25:37.514Z,13.47
2019-02-02T22:28:06.991Z,13.40
2019-02-02T22:30:37.103Z,12.70
2019-02-02T22:33:06.693Z,13.60
2019-02-02T22:35:36.228Z,12.00
2019-02-02T22:38:06.113Z,13.00
2019-02-02T22:40:35.147Z,11.90
2019-02-02T22:43:05.507Z,12.57
2019-02-02T22:45:34.379Z,11.60
2019-02-02T22:48:05.608Z,12.93
2019-02-02T22:50:34.638Z,12.57
2019-02-02T22:53:04.259Z,11.83
2019-02-02T22:55:34.239Z,12.43
2019-02-02T22:58:03.632Z,10.87
2019-02-02T23:01:29.155Z,11.80
2019-02-02T23:04:44.636Z,12.10
2019-02-02T23:07:45.636Z,13.53
2019-02-02T23:10:47.088Z,12.27
2019-02-02T23:13:56.915Z,12.67
2019-02-02T23:16:30.265Z,14.17
2019-02-02T23:19:00.100Z,13.63
2019-02-02T23:21:30.766Z,13.70
2019-02-02T23:24:00.103Z,12.93
2019-02-02T23:26:30.076Z,15.10
2019-02-02T23:28:59.668Z,13.50
2019-02-02T23:31:28.857Z,15.23
2019-02-02T23:33:57.711Z,14.33
2019-02-02T23:36:26.779Z,15.17
2019-02-02T23:38:56.073Z,14.17
2019-02-02T23:41:25.748Z,13.50
2019-02-02T23:43:55.562Z,14.13
2019-02-02T23:46:26.284Z,13.60
2019-02-02T23:48:55.199Z,13.97
2019-02-02T23:51:24.779Z,16.10
2019-02-02T23:53:54.294Z,14.50
2019-02-02T23:56:23.592Z,15.60
2019-02-02T23:58:52.587Z,15.60
